sensor_id;sensor_type;location;lat;lon;timestamp;P1;durP1;ratioP1;P2;durP2;ratioP2
12715;SDS011;6422;49.938;9.124;2022-12-20T00:00:21;18.17;;;6.83;;
12715;SDS011;6422;49.938;9.124;2022-12-20T00:02:47;13.80;;;7.27;;
12715;SDS011;6422;49.938;9.124;2022-12-20T00:05:12;19.33;;;8.20;;
12715;SDS011;6422;49.938;9.124;2022-12-20T00:07:37;27.57;;;9.63;;
12715;SDS011;6422;49.938;9.124;2022-12-20T00:10:03;20.93;;;8.03;;
12715;SDS011;6422;49.938;9.124;2022-12-20T00:12:31;13.90;;;7.27;;
12715;SDS011;6422;49.938;9.124;2022-12-20T00:14:56;21.03;;;9.60;;
12715;SDS011;6422;49.938;9.124;2022-12-20T00:17:21;16.87;;;7.73;;
12715;SDS011;6422;49.938;9.124;2022-12-20T00:19:46;15.53;;;8.13;;
12715;SDS011;6422;49.938;9.124;2022-12-20T00:22:12;18.07;;;8.13;;
12715;SDS011;6422;49.938;9.124;2022-12-20T00:24:37;15.30;;;6.83;;
12715;SDS011;6422;49.938;9.124;2022-12-20T00:27:02;17.27;;;8.70;;
12715;SDS011;6422;49.938;9.124;2022-12-20T00:29:27;15.80;;;7.67;;
12715;SDS011;6422;49.938;9.124;2022-12-20T00:31:52;13.57;;;6.70;;
12715;SDS011;6422;49.938;9.124;2022-12-20T00:34:18;14.43;;;7.00;;
12715;SDS011;6422;49.938;9.124;2022-12-20T00:36:43;13.53;;;6.27;;
12715;SDS011;6422;49.938;9.124;2022-12-20T00:39:08;22.30;;;8.13;;
12715;SDS011;6422;49.938;9.124;2022-12-20T00:41:33;18.47;;;8.10;;
12715;SDS011;6422;49.938;9.124;2022-12-20T00:43:59;19.43;;;8.80;;
12715;SDS011;6422;49.938;9.124;2022-12-20T00:46:24;15.73;;;7.60;;
12715;SDS011;6422;49.938;9.124;2022-12-20T00:48:50;11.23;;;6.90;;
12715;SDS011;6422;49.938;9.124;2022-12-20T00:51:16;15.30;;;7.30;;
12715;SDS011;6422;49.938;9.124;2022-12-20T00:53:42;13.90;;;7.27;;
12715;SDS011;6422;49.938;9.124;2022-12-20T00:56:07;15.30;;;7.03;;
12715;SDS011;6422;49.938;9.124;2022-12-20T00:58:34;17.63;;;7.80;;
12715;SDS011;6422;49.938;9.124;2022-12-20T01:00:59;13.07;;;6.67;;
12715;SDS011;6422;49.938;9.124;2022-12-20T01:03:25;16.53;;;7.07;;
12715;SDS011;6422;49.938;9.124;2022-12-20T01:05:50;13.87;;;7.13;;
12715;SDS011;6422;49.938;9.124;2022-12-20T01:08:17;20.80;;;8.60;;
12715;SDS011;6422;49.938;9.124;2022-12-20T01:10:42;13.17;;;7.00;;
12715;SDS011;6422;49.938;9.124;2022-12-20T01:13:07;20.43;;;9.10;;
12715;SDS011;6422;49.938;9.124;2022-12-20T01:15:32;16.50;;;8.43;;
12715;SDS011;6422;49.938;9.124;2022-12-20T01:17:57;17.47;;;7.50;;
12715;SDS011;6422;49.938;9.124;2022-12-20T01:20:23;19.63;;;8.13;;
12715;SDS011;6422;49.938;9.124;2022-12-20T01:22:48;13.10;;;7.20;;
12715;SDS011;6422;49.938;9.124;2022-12-20T01:25:14;20.60;;;8.40;;
12715;SDS011;6422;49.938;9.124;2022-12-20T01:27:40;15.90;;;7.30;;
12715;SDS011;6422;49.938;9.124;2022-12-20T01:30:05;10.57;;;6.37;;
12715;SDS011;6422;49.938;9.124;2022-12-20T01:32:30;11.03;;;6.97;;
12715;SDS011;6422;49.938;9.124;2022-12-20T01:34:55;17.00;;;8.27;;
12715;SDS011;6422;49.938;9.124;2022-12-20T01:37:21;20.90;;;7.97;;
12715;SDS011;6422;49.938;9.124;2022-12-20T01:39:46;24.00;;;8.10;;
12715;SDS011;6422;49.938;9.124;2022-12-20T01:42:14;14.98;;;7.32;;
12715;SDS011;6422;49.938;9.124;2022-12-20T01:47:05;15.98;;;9.45;;
12715;SDS011;6422;49.938;9.124;2022-12-20T01:49:34;17.97;;;8.00;;
12715;SDS011;6422;49.938;9.124;2022-12-20T01:54:28;20.02;;;9.75;;
12715;SDS011;6422;49.938;9.124;2022-12-20T01:57:01;20.97;;;9.20;;
12715;SDS011;6422;49.938;9.124;2022-12-20T01:59:27;14.20;;;6.10;;
12715;SDS011;6422;49.938;9.124;2022-12-20T02:01:53;23.53;;;6.43;;
12715;SDS011;6422;49.938;9.124;2022-12-20T02:04:20;21.10;;;8.60;;
12715;SDS011;6422;49.938;9.124;2022-12-20T02:06:45;11.45;;;7.18;;
12715;SDS011;6422;49.938;9.124;2022-12-20T02:09:11;25.40;;;9.45;;
12715;SDS011;6422;49.938;9.124;2022-12-20T02:14:13;15.20;;;5.97;;
12715;SDS011;6422;49.938;9.124;2022-12-20T02:16:44;14.13;;;5.83;;
12715;SDS011;6422;49.938;9.124;2022-12-20T02:27:16;11.00;;;6.80;;
12715;SDS011;6422;49.938;9.124;2022-12-20T02:32:25;13.03;;;6.40;;
12715;SDS011;6422;49.938;9.124;2022-12-20T02:34:52;16.17;;;7.23;;
12715;SDS011;6422;49.938;9.124;2022-12-20T02:37:17;18.87;;;7.60;;
12715;SDS011;6422;49.938;9.124;2022-12-20T02:39:43;13.00;;;6.80;;
12715;SDS011;6422;49.938;9.124;2022-12-20T02:42:09;14.10;;;7.53;;
12715;SDS011;6422;49.938;9.124;2022-12-20T02:44:36;17.27;;;7.00;;
12715;SDS011;6422;49.938;9.124;2022-12-20T02:47:21;16.67;;;6.73;;
12715;SDS011;6422;49.938;9.124;2022-12-20T02:49:47;13.53;;;6.83;;
12715;SDS011;6422;49.938;9.124;2022-12-20T02:52:14;14.30;;;6.70;;
12715;SDS011;6422;49.938;9.124;2022-12-20T02:54:40;18.70;;;7.20;;
12715;SDS011;6422;49.938;9.124;2022-12-20T02:59:41;16.60;;;7.60;;
12715;SDS011;6422;49.938;9.124;2022-12-20T03:02:08;12.03;;;5.40;;
12715;SDS011;6422;49.938;9.124;2022-12-20T03:04:35;25.20;;;6.13;;
12715;SDS011;6422;49.938;9.124;2022-12-20T03:09:27;17.83;;;6.88;;
12715;SDS011;6422;49.938;9.124;2022-12-20T03:11:54;12.30;;;6.30;;
12715;SDS011;6422;49.938;9.124;2022-12-20T03:14:19;14.30;;;5.77;;
12715;SDS011;6422;49.938;9.124;2022-12-20T03:16:45;16.27;;;7.13;;
12715;SDS011;6422;49.938;9.124;2022-12-20T03:19:10;25.27;;;7.03;;
12715;SDS011;6422;49.938;9.124;2022-12-20T03:21:35;12.30;;;5.83;;
12715;SDS011;6422;49.938;9.124;2022-12-20T03:24:00;11.43;;;5.70;;
12715;SDS011;6422;49.938;9.124;2022-12-20T03:26:26;21.00;;;6.33;;
12715;SDS011;6422;49.938;9.124;2022-12-20T03:28:51;9.90;;;5.27;;
12715;SDS011;6422;49.938;9.124;2022-12-20T03:31:16;13.43;;;6.57;;
12715;SDS011;6422;49.938;9.124;2022-12-20T03:33:41;13.10;;;6.53;;
12715;SDS011;6422;49.938;9.124;2022-12-20T03:36:06;17.10;;;6.80;;
12715;SDS011;6422;49.938;9.124;2022-12-20T03:38:31;26.23;;;6.67;;
12715;SDS011;6422;49.938;9.124;2022-12-20T03:40:57;12.73;;;6.63;;
12715;SDS011;6422;49.938;9.124;2022-12-20T03:43:22;11.67;;;5.77;;
12715;SDS011;6422;49.938;9.124;2022-12-20T03:45:47;14.20;;;6.27;;
12715;SDS011;6422;49.938;9.124;2022-12-20T03:48:12;18.40;;;6.13;;
12715;SDS011;6422;49.938;9.124;2022-12-20T03:50:37;15.60;;;6.13;;
12715;SDS011;6422;49.938;9.124;2022-12-20T03:53:03;11.73;;;5.93;;
12715;SDS011;6422;49.938;9.124;2022-12-20T03:55:28;10.90;;;6.13;;
12715;SDS011;6422;49.938;9.124;2022-12-20T03:57:53;26.03;;;7.70;;
12715;SDS011;6422;49.938;9.124;2022-12-20T04:00:18;11.57;;;6.23;;
12715;SDS011;6422;49.938;9.124;2022-12-20T04:02:44;12.60;;;5.83;;
12715;SDS011;6422;49.938;9.124;2022-12-20T04:05:09;12.90;;;5.37;;
12715;SDS011;6422;49.938;9.124;2022-12-20T04:07:34;15.37;;;7.43;;
12715;SDS011;6422;49.938;9.124;2022-12-20T04:10:00;15.70;;;7.10;;
12715;SDS011;6422;49.938;9.124;2022-12-20T04:12:25;18.50;;;5.83;;
12715;SDS011;6422;49.938;9.124;2022-12-20T04:14:50;13.60;;;5.87;;
12715;SDS011;6422;49.938;9.124;2022-12-20T04:17:15;16.10;;;6.10;;
12715;SDS011;6422;49.938;9.124;2022-12-20T04:19:40;11.80;;;6.00;;
12715;SDS011;6422;49.938;9.124;2022-12-20T04:22:05;12.63;;;6.70;;
12715;SDS011;6422;49.938;9.124;2022-12-20T04:24:31;12.90;;;6.43;;
12715;SDS011;6422;49.938;9.124;2022-12-20T04:26:56;34.00;;;7.03;;
12715;SDS011;6422;49.938;9.124;2022-12-20T04:29:21;10.10;;;5.33;;
12715;SDS011;6422;49.938;9.124;2022-12-20T04:31:46;14.63;;;5.80;;
12715;SDS011;6422;49.938;9.124;2022-12-20T04:34:11;13.30;;;6.27;;
12715;SDS011;6422;49.938;9.124;2022-12-20T04:36:36;13.10;;;6.63;;
12715;SDS011;6422;49.938;9.124;2022-12-20T04:39:02;11.63;;;6.55;;
12715;SDS011;6422;49.938;9.124;2022-12-20T04:41:27;12.60;;;6.07;;
12715;SDS011;6422;49.938;9.124;2022-12-20T04:43:54;14.57;;;6.60;;
12715;SDS011;6422;49.938;9.124;2022-12-20T04:46:19;10.73;;;5.60;;
12715;SDS011;6422;49.938;9.124;2022-12-20T04:48:45;25.70;;;5.90;;
12715;SDS011;6422;49.938;9.124;2022-12-20T04:51:10;11.07;;;5.70;;
12715;SDS011;6422;49.938;9.124;2022-12-20T04:53:35;10.23;;;6.20;;
12715;SDS011;6422;49.938;9.124;2022-12-20T04:56:23;18.20;;;6.40;;
12715;SDS011;6422;49.938;9.124;2022-12-20T04:58:49;12.03;;;6.83;;
12715;SDS011;6422;49.938;9.124;2022-12-20T05:01:14;16.13;;;6.50;;
12715;SDS011;6422;49.938;9.124;2022-12-20T05:03:40;9.50;;;5.07;;
12715;SDS011;6422;49.938;9.124;2022-12-20T05:06:05;10.27;;;4.43;;
12715;SDS011;6422;49.938;9.124;2022-12-20T05:08:30;14.73;;;6.47;;
12715;SDS011;6422;49.938;9.124;2022-12-20T05:10:56;11.03;;;5.87;;
12715;SDS011;6422;49.938;9.124;2022-12-20T05:13:21;12.03;;;7.33;;
12715;SDS011;6422;49.938;9.124;2022-12-20T05:15:50;12.40;;;5.77;;
12715;SDS011;6422;49.938;9.124;2022-12-20T05:18:16;9.90;;;6.27;;
12715;SDS011;6422;49.938;9.124;2022-12-20T05:20:41;20.90;;;6.93;;
12715;SDS011;6422;49.938;9.124;2022-12-20T05:23:07;18.67;;;6.10;;
12715;SDS011;6422;49.938;9.124;2022-12-20T05:25:52;9.20;;;6.03;;
12715;SDS011;6422;49.938;9.124;2022-12-20T05:28:36;15.00;;;6.00;;
12715;SDS011;6422;49.938;9.124;2022-12-20T05:31:01;10.63;;;4.90;;
12715;SDS011;6422;49.938;9.124;2022-12-20T05:33:27;9.37;;;5.50;;
12715;SDS011;6422;49.938;9.124;2022-12-20T05:35:52;10.63;;;5.60;;
12715;SDS011;6422;49.938;9.124;2022-12-20T05:38:18;11.80;;;5.63;;
12715;SDS011;6422;49.938;9.124;2022-12-20T05:40:45;12.27;;;6.03;;
12715;SDS011;6422;49.938;9.124;2022-12-20T05:43:10;15.90;;;6.70;;
12715;SDS011;6422;49.938;9.124;2022-12-20T05:45:36;8.27;;;5.73;;
12715;SDS011;6422;49.938;9.124;2022-12-20T05:48:01;14.20;;;6.33;;
12715;SDS011;6422;49.938;9.124;2022-12-20T05:50:26;11.93;;;6.40;;
12715;SDS011;6422;49.938;9.124;2022-12-20T05:52:51;11.83;;;5.70;;
12715;SDS011;6422;49.938;9.124;2022-12-20T05:55:17;12.73;;;5.10;;
12715;SDS011;6422;49.938;9.124;2022-12-20T05:57:42;9.93;;;5.18;;
12715;SDS011;6422;49.938;9.124;2022-12-20T06:00:07;15.63;;;7.30;;
12715;SDS011;6422;49.938;9.124;2022-12-20T06:02:33;17.33;;;6.47;;
12715;SDS011;6422;49.938;9.124;2022-12-20T06:04:58;13.53;;;6.83;;
12715;SDS011;6422;49.938;9.124;2022-12-20T06:07:24;14.60;;;6.87;;
12715;SDS011;6422;49.938;9.124;2022-12-20T06:09:49;11.40;;;5.10;;
12715;SDS011;6422;49.938;9.124;2022-12-20T06:12:14;19.67;;;5.90;;
12715;SDS011;6422;49.938;9.124;2022-12-20T06:14:39;13.93;;;5.40;;
12715;SDS011;6422;49.938;9.124;2022-12-20T06:17:04;14.37;;;5.03;;
12715;SDS011;6422;49.938;9.124;2022-12-20T06:19:30;12.30;;;5.60;;
12715;SDS011;6422;49.938;9.124;2022-12-20T06:21:55;10.73;;;4.47;;
12715;SDS011;6422;49.938;9.124;2022-12-20T06:24:20;15.40;;;6.90;;
12715;SDS011;6422;49.938;9.124;2022-12-20T06:26:49;15.07;;;5.90;;
12715;SDS011;6422;49.938;9.124;2022-12-20T06:29:14;11.07;;;5.00;;
12715;SDS011;6422;49.938;9.124;2022-12-20T06:31:41;14.17;;;7.20;;
12715;SDS011;6422;49.938;9.124;2022-12-20T06:34:06;11.90;;;6.57;;
12715;SDS011;6422;49.938;9.124;2022-12-20T06:36:31;13.63;;;5.40;;
12715;SDS011;6422;49.938;9.124;2022-12-20T06:38:57;12.90;;;5.47;;
12715;SDS011;6422;49.938;9.124;2022-12-20T06:41:22;9.23;;;5.00;;
12715;SDS011;6422;49.938;9.124;2022-12-20T06:43:47;10.10;;;4.70;;
12715;SDS011;6422;49.938;9.124;2022-12-20T06:46:12;9.70;;;5.20;;
12715;SDS011;6422;49.938;9.124;2022-12-20T06:48:37;12.80;;;5.37;;
12715;SDS011;6422;49.938;9.124;2022-12-20T06:51:03;9.47;;;5.43;;
12715;SDS011;6422;49.938;9.124;2022-12-20T06:53:28;9.83;;;5.00;;
12715;SDS011;6422;49.938;9.124;2022-12-20T06:55:53;11.37;;;6.20;;
12715;SDS011;6422;49.938;9.124;2022-12-20T06:58:18;8.63;;;5.20;;
12715;SDS011;6422;49.938;9.124;2022-12-20T07:00:44;9.73;;;5.37;;
12715;SDS011;6422;49.938;9.124;2022-12-20T07:03:09;11.90;;;6.20;;
12715;SDS011;6422;49.938;9.124;2022-12-20T07:05:34;10.73;;;5.67;;
12715;SDS011;6422;49.938;9.124;2022-12-20T07:08:00;14.47;;;5.80;;
12715;SDS011;6422;49.938;9.124;2022-12-20T07:10:26;17.97;;;7.97;;
12715;SDS011;6422;49.938;9.124;2022-12-20T07:12:51;15.63;;;6.10;;
12715;SDS011;6422;49.938;9.124;2022-12-20T07:15:17;26.50;;;5.63;;
12715;SDS011;6422;49.938;9.124;2022-12-20T07:17:42;13.73;;;5.73;;
12715;SDS011;6422;49.938;9.124;2022-12-20T07:20:07;13.17;;;6.00;;
12715;SDS011;6422;49.938;9.124;2022-12-20T07:22:33;11.73;;;7.63;;
12715;SDS011;6422;49.938;9.124;2022-12-20T07:24:58;8.70;;;4.30;;
12715;SDS011;6422;49.938;9.124;2022-12-20T07:27:23;12.70;;;5.10;;
12715;SDS011;6422;49.938;9.124;2022-12-20T07:29:49;11.93;;;6.00;;
12715;SDS011;6422;49.938;9.124;2022-12-20T07:32:14;12.07;;;5.03;;
12715;SDS011;6422;49.938;9.124;2022-12-20T07:34:39;14.27;;;6.20;;
12715;SDS011;6422;49.938;9.124;2022-12-20T07:37:05;12.70;;;6.00;;
12715;SDS011;6422;49.938;9.124;2022-12-20T07:39:30;12.97;;;6.10;;
12715;SDS011;6422;49.938;9.124;2022-12-20T07:41:55;15.30;;;4.80;;
12715;SDS011;6422;49.938;9.124;2022-12-20T07:44:22;11.20;;;4.90;;
12715;SDS011;6422;49.938;9.124;2022-12-20T07:46:47;11.47;;;5.70;;
12715;SDS011;6422;49.938;9.124;2022-12-20T07:49:12;12.57;;;6.60;;
12715;SDS011;6422;49.938;9.124;2022-12-20T07:51:39;11.23;;;5.13;;
12715;SDS011;6422;49.938;9.124;2022-12-20T07:54:10;16.20;;;6.90;;
12715;SDS011;6422;49.938;9.124;2022-12-20T07:56:36;12.37;;;5.73;;
12715;SDS011;6422;49.938;9.124;2022-12-20T07:59:03;10.43;;;5.00;;
12715;SDS011;6422;49.938;9.124;2022-12-20T08:01:28;14.90;;;6.90;;
12715;SDS011;6422;49.938;9.124;2022-12-20T08:03:57;11.87;;;6.90;;
12715;SDS011;6422;49.938;9.124;2022-12-20T08:06:23;13.60;;;6.00;;
12715;SDS011;6422;49.938;9.124;2022-12-20T08:08:50;12.77;;;6.53;;
12715;SDS011;6422;49.938;9.124;2022-12-20T08:11:17;13.43;;;6.73;;
12715;SDS011;6422;49.938;9.124;2022-12-20T08:13:43;12.00;;;6.47;;
12715;SDS011;6422;49.938;9.124;2022-12-20T08:16:09;9.57;;;5.77;;
12715;SDS011;6422;49.938;9.124;2022-12-20T08:18:34;11.73;;;6.47;;
12715;SDS011;6422;49.938;9.124;2022-12-20T08:20:59;12.00;;;6.07;;
12715;SDS011;6422;49.938;9.124;2022-12-20T08:23:25;14.83;;;6.30;;
12715;SDS011;6422;49.938;9.124;2022-12-20T08:25:50;12.50;;;5.70;;
12715;SDS011;6422;49.938;9.124;2022-12-20T08:28:15;18.30;;;6.50;;
12715;SDS011;6422;49.938;9.124;2022-12-20T08:30:40;15.67;;;6.03;;
12715;SDS011;6422;49.938;9.124;2022-12-20T08:33:05;13.07;;;6.17;;
12715;SDS011;6422;49.938;9.124;2022-12-20T08:35:31;10.77;;;5.47;;
12715;SDS011;6422;49.938;9.124;2022-12-20T08:37:56;13.23;;;6.20;;
12715;SDS011;6422;49.938;9.124;2022-12-20T08:40:21;11.63;;;6.67;;
12715;SDS011;6422;49.938;9.124;2022-12-20T08:42:46;12.37;;;5.70;;
12715;SDS011;6422;49.938;9.124;2022-12-20T08:45:11;18.97;;;6.30;;
12715;SDS011;6422;49.938;9.124;2022-12-20T08:47:37;16.13;;;6.80;;
12715;SDS011;6422;49.938;9.124;2022-12-20T08:50:02;20.57;;;5.73;;
12715;SDS011;6422;49.938;9.124;2022-12-20T08:52:28;13.30;;;6.67;;
12715;SDS011;6422;49.938;9.124;2022-12-20T08:54:53;10.80;;;5.80;;
12715;SDS011;6422;49.938;9.124;2022-12-20T08:57:18;12.03;;;6.30;;
12715;SDS011;6422;49.938;9.124;2022-12-20T08:59:44;9.27;;;5.10;;
12715;SDS011;6422;49.938;9.124;2022-12-20T09:02:09;12.50;;;6.50;;
12715;SDS011;6422;49.938;9.124;2022-12-20T09:04:34;9.17;;;5.50;;
12715;SDS011;6422;49.938;9.124;2022-12-20T09:06:59;11.87;;;5.60;;
12715;SDS011;6422;49.938;9.124;2022-12-20T09:09:24;9.53;;;5.07;;
12715;SDS011;6422;49.938;9.124;2022-12-20T09:11:50;12.30;;;5.20;;
12715;SDS011;6422;49.938;9.124;2022-12-20T09:14:15;8.87;;;5.73;;
12715;SDS011;6422;49.938;9.124;2022-12-20T09:16:40;9.87;;;5.63;;
12715;SDS011;6422;49.938;9.124;2022-12-20T09:19:05;11.03;;;5.70;;
12715;SDS011;6422;49.938;9.124;2022-12-20T09:21:31;11.97;;;5.20;;
12715;SDS011;6422;49.938;9.124;2022-12-20T09:23:56;14.87;;;6.33;;
12715;SDS011;6422;49.938;9.124;2022-12-20T09:26:22;10.77;;;6.03;;
12715;SDS011;6422;49.938;9.124;2022-12-20T09:28:47;18.17;;;6.97;;
12715;SDS011;6422;49.938;9.124;2022-12-20T09:31:14;11.80;;;5.23;;
12715;SDS011;6422;49.938;9.124;2022-12-20T09:33:40;11.13;;;4.77;;
12715;SDS011;6422;49.938;9.124;2022-12-20T09:36:05;14.43;;;5.60;;
12715;SDS011;6422;49.938;9.124;2022-12-20T09:38:31;12.07;;;5.93;;
12715;SDS011;6422;49.938;9.124;2022-12-20T09:40:57;12.90;;;6.40;;
12715;SDS011;6422;49.938;9.124;2022-12-20T09:43:23;8.07;;;4.43;;
12715;SDS011;6422;49.938;9.124;2022-12-20T09:45:52;13.80;;;5.40;;
12715;SDS011;6422;49.938;9.124;2022-12-20T09:48:19;13.60;;;5.60;;
12715;SDS011;6422;49.938;9.124;2022-12-20T09:56:11;16.83;;;6.07;;
12715;SDS011;6422;49.938;9.124;2022-12-20T09:58:42;14.47;;;6.40;;
12715;SDS011;6422;49.938;9.124;2022-12-20T10:01:21;8.00;;;4.30;;
12715;SDS011;6422;49.938;9.124;2022-12-20T10:03:48;15.63;;;5.60;;
12715;SDS011;6422;49.938;9.124;2022-12-20T10:08:43;11.17;;;5.50;;
12715;SDS011;6422;49.938;9.124;2022-12-20T10:11:12;13.10;;;4.33;;
12715;SDS011;6422;49.938;9.124;2022-12-20T10:13:50;15.90;;;5.43;;
12715;SDS011;6422;49.938;9.124;2022-12-20T10:16:30;11.03;;;5.70;;
12715;SDS011;6422;49.938;9.124;2022-12-20T10:19:02;9.77;;;4.77;;
12715;SDS011;6422;49.938;9.124;2022-12-20T10:21:35;10.87;;;5.50;;
12715;SDS011;6422;49.938;9.124;2022-12-20T10:24:06;12.00;;;5.70;;
12715;SDS011;6422;49.938;9.124;2022-12-20T10:26:34;14.03;;;5.00;;
12715;SDS011;6422;49.938;9.124;2022-12-20T10:28:59;17.40;;;6.53;;
12715;SDS011;6422;49.938;9.124;2022-12-20T10:31:25;15.67;;;5.63;;
12715;SDS011;6422;49.938;9.124;2022-12-20T10:33:51;9.10;;;4.93;;
12715;SDS011;6422;49.938;9.124;2022-12-20T10:36:24;20.95;;;6.30;;
12715;SDS011;6422;49.938;9.124;2022-12-20T10:38:56;7.07;;;4.17;;
12715;SDS011;6422;49.938;9.124;2022-12-20T10:41:23;7.13;;;4.20;;
12715;SDS011;6422;49.938;9.124;2022-12-20T10:43:51;10.03;;;5.13;;
12715;SDS011;6422;49.938;9.124;2022-12-20T10:46:17;9.80;;;5.70;;
12715;SDS011;6422;49.938;9.124;2022-12-20T10:48:44;9.53;;;5.17;;
12715;SDS011;6422;49.938;9.124;2022-12-20T10:53:48;16.00;;;5.73;;
12715;SDS011;6422;49.938;9.124;2022-12-20T10:56:33;17.00;;;4.93;;
12715;SDS011;6422;49.938;9.124;2022-12-20T11:01:42;14.87;;;5.63;;
12715;SDS011;6422;49.938;9.124;2022-12-20T11:06:52;10.80;;;5.43;;
12715;SDS011;6422;49.938;9.124;2022-12-20T11:09:24;18.17;;;5.07;;
12715;SDS011;6422;49.938;9.124;2022-12-20T11:12:00;8.00;;;4.70;;
12715;SDS011;6422;49.938;9.124;2022-12-20T11:14:25;13.27;;;5.50;;
12715;SDS011;6422;49.938;9.124;2022-12-20T11:16:52;11.53;;;5.10;;
12715;SDS011;6422;49.938;9.124;2022-12-20T11:19:31;12.33;;;5.07;;
12715;SDS011;6422;49.938;9.124;2022-12-20T11:29:34;10.90;;;5.50;;
12715;SDS011;6422;49.938;9.124;2022-12-20T11:32:12;12.13;;;5.50;;
12715;SDS011;6422;49.938;9.124;2022-12-20T11:34:54;9.37;;;5.23;;
12715;SDS011;6422;49.938;9.124;2022-12-20T11:37:23;7.77;;;4.50;;
12715;SDS011;6422;49.938;9.124;2022-12-20T11:42:24;20.67;;;5.47;;
12715;SDS011;6422;49.938;9.124;2022-12-20T11:45:01;12.57;;;5.77;;
12715;SDS011;6422;49.938;9.124;2022-12-20T11:47:33;8.60;;;4.97;;
12715;SDS011;6422;49.938;9.124;2022-12-20T11:52:51;10.90;;;4.60;;
12715;SDS011;6422;49.938;9.124;2022-12-20T11:55:23;10.03;;;5.77;;
12715;SDS011;6422;49.938;9.124;2022-12-20T11:58:36;6.40;;;4.43;;
12715;SDS011;6422;49.938;9.124;2022-12-20T12:00:39;11.57;;;4.97;;
12715;SDS011;6422;49.938;9.124;2022-12-20T12:03:13;10.13;;;4.73;;
12715;SDS011;6422;49.938;9.124;2022-12-20T12:08:06;8.63;;;5.07;;
12715;SDS011;6422;49.938;9.124;2022-12-20T12:10:37;12.90;;;6.57;;
12715;SDS011;6422;49.938;9.124;2022-12-20T12:15:39;16.00;;;6.00;;
12715;SDS011;6422;49.938;9.124;2022-12-20T12:18:16;9.10;;;4.27;;
12715;SDS011;6422;49.938;9.124;2022-12-20T12:23:24;16.90;;;6.73;;
12715;SDS011;6422;49.938;9.124;2022-12-20T12:25:50;9.97;;;4.93;;
12715;SDS011;6422;49.938;9.124;2022-12-20T12:28:16;13.80;;;5.40;;
12715;SDS011;6422;49.938;9.124;2022-12-20T12:30:43;7.70;;;4.40;;
12715;SDS011;6422;49.938;9.124;2022-12-20T12:33:11;7.17;;;4.30;;
12715;SDS011;6422;49.938;9.124;2022-12-20T12:45:54;17.53;;;5.00;;
12715;SDS011;6422;49.938;9.124;2022-12-20T12:48:41;9.73;;;4.73;;
12715;SDS011;6422;49.938;9.124;2022-12-20T12:51:07;8.87;;;4.77;;
12715;SDS011;6422;49.938;9.124;2022-12-20T12:53:42;13.13;;;4.60;;
12715;SDS011;6422;49.938;9.124;2022-12-20T12:59:39;13.77;;;5.30;;
12715;SDS011;6422;49.938;9.124;2022-12-20T13:04:22;10.13;;;4.47;;
12715;SDS011;6422;49.938;9.124;2022-12-20T13:11:51;10.17;;;4.57;;
12715;SDS011;6422;49.938;9.124;2022-12-20T13:16:41;10.90;;;5.07;;
12715;SDS011;6422;49.938;9.124;2022-12-20T13:19:11;10.97;;;5.87;;
12715;SDS011;6422;49.938;9.124;2022-12-20T13:21:37;31.30;;;8.57;;
12715;SDS011;6422;49.938;9.124;2022-12-20T13:25:18;22.60;;;9.63;;
12715;SDS011;6422;49.938;9.124;2022-12-20T13:26:57;20.73;;;6.50;;
12715;SDS011;6422;49.938;9.124;2022-12-20T13:29:24;15.47;;;6.70;;
12715;SDS011;6422;49.938;9.124;2022-12-20T13:31:50;13.10;;;4.00;;
12715;SDS011;6422;49.938;9.124;2022-12-20T13:34:35;10.87;;;4.13;;
12715;SDS011;6422;49.938;9.124;2022-12-20T13:37:01;7.90;;;4.40;;
12715;SDS011;6422;49.938;9.124;2022-12-20T13:41:52;9.15;;;4.40;;
12715;SDS011;6422;49.938;9.124;2022-12-20T13:44:44;11.40;;;4.77;;
12715;SDS011;6422;49.938;9.124;2022-12-20T13:49:41;9.70;;;4.83;;
12715;SDS011;6422;49.938;9.124;2022-12-20T13:54:35;9.27;;;4.93;;
12715;SDS011;6422;49.938;9.124;2022-12-20T13:57:04;11.33;;;4.70;;
12715;SDS011;6422;49.938;9.124;2022-12-20T13:59:30;8.00;;;4.57;;
12715;SDS011;6422;49.938;9.124;2022-12-20T14:01:57;9.40;;;5.40;;
12715;SDS011;6422;49.938;9.124;2022-12-20T14:04:23;9.57;;;4.47;;
12715;SDS011;6422;49.938;9.124;2022-12-20T14:06:51;10.10;;;5.43;;
12715;SDS011;6422;49.938;9.124;2022-12-20T14:12:01;11.57;;;4.70;;
12715;SDS011;6422;49.938;9.124;2022-12-20T14:14:26;12.00;;;5.50;;
12715;SDS011;6422;49.938;9.124;2022-12-20T14:16:51;9.90;;;5.10;;
12715;SDS011;6422;49.938;9.124;2022-12-20T14:19:16;10.82;;;5.95;;
12715;SDS011;6422;49.938;9.124;2022-12-20T14:21:42;13.03;;;4.90;;
12715;SDS011;6422;49.938;9.124;2022-12-20T14:24:11;9.20;;;5.40;;
12715;SDS011;6422;49.938;9.124;2022-12-20T14:26:40;12.60;;;5.03;;
12715;SDS011;6422;49.938;9.124;2022-12-20T14:29:09;8.47;;;4.83;;
12715;SDS011;6422;49.938;9.124;2022-12-20T14:31:36;13.43;;;4.40;;
12715;SDS011;6422;49.938;9.124;2022-12-20T14:36:47;7.77;;;4.70;;
12715;SDS011;6422;49.938;9.124;2022-12-20T14:39:27;7.17;;;3.83;;
12715;SDS011;6422;49.938;9.124;2022-12-20T14:42:00;9.53;;;4.33;;
12715;SDS011;6422;49.938;9.124;2022-12-20T14:44:26;9.33;;;4.57;;
12715;SDS011;6422;49.938;9.124;2022-12-20T14:46:56;7.37;;;4.80;;
12715;SDS011;6422;49.938;9.124;2022-12-20T14:49:22;16.47;;;5.33;;
12715;SDS011;6422;49.938;9.124;2022-12-20T14:51:48;13.33;;;6.60;;
12715;SDS011;6422;49.938;9.124;2022-12-20T14:54:18;13.30;;;5.50;;
12715;SDS011;6422;49.938;9.124;2022-12-20T14:56:47;11.73;;;5.20;;
12715;SDS011;6422;49.938;9.124;2022-12-20T14:59:15;15.10;;;5.43;;
12715;SDS011;6422;49.938;9.124;2022-12-20T15:01:41;18.70;;;4.43;;
12715;SDS011;6422;49.938;9.124;2022-12-20T15:04:23;8.93;;;5.20;;
12715;SDS011;6422;49.938;9.124;2022-12-20T15:06:48;9.00;;;4.80;;
12715;SDS011;6422;49.938;9.124;2022-12-20T15:09:16;14.33;;;4.60;;
12715;SDS011;6422;49.938;9.124;2022-12-20T15:11:41;10.23;;;4.82;;
12715;SDS011;6422;49.938;9.124;2022-12-20T15:14:53;12.53;;;6.40;;
12715;SDS011;6422;49.938;9.124;2022-12-20T15:16:53;14.47;;;6.10;;
12715;SDS011;6422;49.938;9.124;2022-12-20T15:19:18;16.57;;;5.57;;
12715;SDS011;6422;49.938;9.124;2022-12-20T15:21:43;11.40;;;5.70;;
12715;SDS011;6422;49.938;9.124;2022-12-20T15:24:11;15.30;;;5.90;;
12715;SDS011;6422;49.938;9.124;2022-12-20T15:26:37;11.00;;;5.27;;
12715;SDS011;6422;49.938;9.124;2022-12-20T15:29:02;10.03;;;5.43;;
12715;SDS011;6422;49.938;9.124;2022-12-20T15:31:28;9.13;;;4.80;;
12715;SDS011;6422;49.938;9.124;2022-12-20T15:33:53;16.33;;;6.60;;
12715;SDS011;6422;49.938;9.124;2022-12-20T15:36:22;6.90;;;3.30;;
12715;SDS011;6422;49.938;9.124;2022-12-20T15:38:48;11.93;;;4.60;;
12715;SDS011;6422;49.938;9.124;2022-12-20T15:43:41;9.07;;;5.10;;
12715;SDS011;6422;49.938;9.124;2022-12-20T15:46:07;11.43;;;5.10;;
12715;SDS011;6422;49.938;9.124;2022-12-20T15:48:32;9.47;;;4.30;;
12715;SDS011;6422;49.938;9.124;2022-12-20T15:50:57;7.45;;;4.53;;
12715;SDS011;6422;49.938;9.124;2022-12-20T15:53:24;8.07;;;3.70;;
12715;SDS011;6422;49.938;9.124;2022-12-20T15:55:51;9.80;;;4.90;;
12715;SDS011;6422;49.938;9.124;2022-12-20T15:58:17;11.27;;;4.97;;
12715;SDS011;6422;49.938;9.124;2022-12-20T16:00:42;11.87;;;4.20;;
12715;SDS011;6422;49.938;9.124;2022-12-20T16:03:17;12.70;;;5.80;;
12715;SDS011;6422;49.938;9.124;2022-12-20T16:05:44;18.33;;;5.93;;
12715;SDS011;6422;49.938;9.124;2022-12-20T16:08:09;7.77;;;4.67;;
12715;SDS011;6422;49.938;9.124;2022-12-20T16:10:34;11.87;;;5.37;;
12715;SDS011;6422;49.938;9.124;2022-12-20T16:13:00;12.67;;;5.43;;
12715;SDS011;6422;49.938;9.124;2022-12-20T16:15:25;18.27;;;6.20;;
12715;SDS011;6422;49.938;9.124;2022-12-20T16:17:50;7.63;;;4.30;;
12715;SDS011;6422;49.938;9.124;2022-12-20T16:20:16;10.57;;;5.38;;
12715;SDS011;6422;49.938;9.124;2022-12-20T16:22:41;12.93;;;5.33;;
12715;SDS011;6422;49.938;9.124;2022-12-20T16:25:08;10.37;;;5.33;;
12715;SDS011;6422;49.938;9.124;2022-12-20T16:27:39;11.83;;;5.30;;